sensor_id;sensor_type;location;lat;lon;timestamp;pressure;altitude;pressure_sealevel;temperature;humidity
84024;BME280;74109;45.636;25.582;2023-12-22T00:00:07;92707.71;;;0.24;70.90
84024;BME280;74109;45.636;25.582;2023-12-22T00:04:00;92699.94;;;0.20;71.00
84024;BME280;74109;45.636;25.582;2023-12-22T00:06:40;92696.46;;;0.17;70.95
84024;BME280;74109;45.636;25.582;2023-12-22T00:09:14;92686.10;;;0.19;70.90
84024;BME280;74109;45.636;25.582;2023-12-22T00:12:08;92673.30;;;0.20;71.22
84024;BME280;74109;45.636;25.582;2023-12-22T00:19:07;92623.56;;;0.19;71.74
84024;BME280;74109;45.636;25.582;2023-12-22T00:21:40;92624.41;;;0.20;71.64
84024;BME280;74109;45.636;25.582;2023-12-22T00:24:25;92622.23;;;0.21;71.42
84024;BME280;74109;45.636;25.582;2023-12-22T00:27:22;92616.78;;;0.18;71.71
84024;BME280;74109;45.636;25.582;2023-12-22T00:30:21;92611.88;;;0.17;71.44
84024;BME280;74109;45.636;25.582;2023-12-22T00:33:50;92611.68;;;0.14;72.20
84024;BME280;74109;45.636;25.582;2023-12-22T00:40:37;92595.59;;;0.09;72.20
84024;BME280;74109;45.636;25.582;2023-12-22T00:43:21;92596.95;;;0.12;72.10
84024;BME280;74109;45.636;25.582;2023-12-22T00:46:10;92595.58;;;0.17;72.33
84024;BME280;74109;45.636;25.582;2023-12-22T00:48:47;92603.17;;;0.18;72.36
84024;BME280;74109;45.636;25.582;2023-12-22T00:51:35;92613.04;;;0.16;72.44
84024;BME280;74109;45.636;25.582;2023-12-22T00:54:04;92610.80;;;0.13;72.37
84024;BME280;74109;45.636;25.582;2023-12-22T00:57:45;92607.10;;;0.09;72.54
84024;BME280;74109;45.636;25.582;2023-12-22T01:00:35;92608.47;;;0.05;72.55
84024;BME280;74109;45.636;25.582;2023-12-22T01:03:30;92610.33;;;0.03;72.36
84024;BME280;74109;45.636;25.582;2023-12-22T01:06:31;92600.89;;;0.02;72.37
84024;BME280;74109;45.636;25.582;2023-12-22T01:09:07;92599.14;;;0.08;72.38
84024;BME280;74109;45.636;25.582;2023-12-22T01:11:56;92604.42;;;0.11;72.14
84024;BME280;74109;45.636;25.582;2023-12-22T01:14:42;92608.56;;;0.13;72.08
84024;BME280;74109;45.636;25.582;2023-12-22T01:17:13;92596.94;;;0.15;71.89
84024;BME280;74109;45.636;25.582;2023-12-22T01:20:10;92589.52;;;0.16;72.13
84024;BME280;74109;45.636;25.582;2023-12-22T01:22:41;92584.14;;;0.18;71.73
84024;BME280;74109;45.636;25.582;2023-12-22T01:28:19;92555.97;;;0.22;71.69
84024;BME280;74109;45.636;25.582;2023-12-22T01:31:14;92541.13;;;0.24;71.68
84024;BME280;74109;45.636;25.582;2023-12-22T01:34:02;92533.63;;;0.28;71.29
84024;BME280;74109;45.636;25.582;2023-12-22T01:36:40;92526.32;;;0.30;71.30
84024;BME280;74109;45.636;25.582;2023-12-22T01:39:13;92523.98;;;0.29;71.64
84024;BME280;74109;45.636;25.582;2023-12-22T01:41:45;92518.98;;;0.29;71.73
84024;BME280;74109;45.636;25.582;2023-12-22T01:44:39;92517.52;;;0.32;72.11
84024;BME280;74109;45.636;25.582;2023-12-22T01:47:33;92522.94;;;0.33;71.82
84024;BME280;74109;45.636;25.582;2023-12-22T01:50:27;92527.61;;;0.32;71.61
84024;BME280;74109;45.636;25.582;2023-12-22T01:53:01;92528.92;;;0.30;71.64
84024;BME280;74109;45.636;25.582;2023-12-22T01:55:42;92529.73;;;0.30;72.16
84024;BME280;74109;45.636;25.582;2023-12-22T01:58:35;92534.75;;;0.27;72.10
84024;BME280;74109;45.636;25.582;2023-12-22T02:02:11;92535.05;;;0.24;72.29
84024;BME280;74109;45.636;25.582;2023-12-22T02:05:32;92536.39;;;0.24;72.08
84024;BME280;74109;45.636;25.582;2023-12-22T02:08:10;92535.40;;;0.31;72.02
84024;BME280;74109;45.636;25.582;2023-12-22T02:11:16;92535.64;;;0.40;72.19
84024;BME280;74109;45.636;25.582;2023-12-22T02:22:06;92525.36;;;0.51;71.34
84024;BME280;74109;45.636;25.582;2023-12-22T02:25:07;92523.70;;;0.52;71.56
84024;BME280;74109;45.636;25.582;2023-12-22T02:27:50;92529.17;;;0.49;71.72
84024;BME280;74109;45.636;25.582;2023-12-22T02:30:39;92530.64;;;0.48;71.36
84024;BME280;74109;45.636;25.582;2023-12-22T02:33:17;92539.91;;;0.48;71.63
84024;BME280;74109;45.636;25.582;2023-12-22T02:36:06;92544.36;;;0.44;71.96
84024;BME280;74109;45.636;25.582;2023-12-22T02:42:39;92536.39;;;0.38;72.10
84024;BME280;74109;45.636;25.582;2023-12-22T02:45:29;92537.08;;;0.36;71.87
84024;BME280;74109;45.636;25.582;2023-12-22T02:48:38;92543.17;;;0.38;71.96
84024;BME280;74109;45.636;25.582;2023-12-22T02:52:27;92550.39;;;0.41;71.66
84024;BME280;74109;45.636;25.582;2023-12-22T03:03:13;92526.36;;;0.24;71.87
84024;BME280;74109;45.636;25.582;2023-12-22T03:05:57;92527.48;;;0.29;72.31
84024;BME280;74109;45.636;25.582;2023-12-22T03:08:58;92521.59;;;0.26;72.28
84024;BME280;74109;45.636;25.582;2023-12-22T03:15:40;92506.05;;;0.17;72.65
84024;BME280;74109;45.636;25.582;2023-12-22T03:22:02;92494.17;;;0.25;72.35
84024;BME280;74109;45.636;25.582;2023-12-22T03:28:44;92491.09;;;0.46;72.44
84024;BME280;74109;45.636;25.582;2023-12-22T03:42:31;92457.09;;;0.75;71.59
84024;BME280;74109;45.636;25.582;2023-12-22T03:45:53;92452.02;;;0.77;71.55
84024;BME280;74109;45.636;25.582;2023-12-22T03:49:05;92447.17;;;0.82;71.34
84024;BME280;74109;45.636;25.582;2023-12-22T03:52:14;92449.08;;;0.87;70.90
84024;BME280;74109;45.636;25.582;2023-12-22T03:55:19;92448.67;;;0.93;71.02
84024;BME280;74109;45.636;25.582;2023-12-22T03:57:55;92442.06;;;0.95;70.73
84024;BME280;74109;45.636;25.582;2023-12-22T04:00:42;92425.48;;;1.01;70.53
84024;BME280;74109;45.636;25.582;2023-12-22T04:03:37;92415.84;;;1.09;70.83
84024;BME280;74109;45.636;25.582;2023-12-22T04:10:39;92410.14;;;1.19;70.37
84024;BME280;74109;45.636;25.582;2023-12-22T04:17:00;92401.20;;;1.18;70.48
84024;BME280;74109;45.636;25.582;2023-12-22T04:19:32;92390.25;;;1.21;70.69
84024;BME280;74109;45.636;25.582;2023-12-22T04:22:05;92383.84;;;1.25;70.51
84024;BME280;74109;45.636;25.582;2023-12-22T04:26:13;92390.04;;;1.30;70.51
84024;BME280;74109;45.636;25.582;2023-12-22T04:28:38;92396.06;;;1.32;70.16
84024;BME280;74109;45.636;25.582;2023-12-22T04:31:15;92397.14;;;1.31;70.43
84024;BME280;74109;45.636;25.582;2023-12-22T04:33:55;92397.77;;;1.35;70.41
84024;BME280;74109;45.636;25.582;2023-12-22T04:37:22;92397.13;;;1.41;70.62
84024;BME280;74109;45.636;25.582;2023-12-22T04:39:54;92383.64;;;1.45;70.62
84024;BME280;74109;45.636;25.582;2023-12-22T04:43:04;92369.17;;;1.50;70.78
84024;BME280;74109;45.636;25.582;2023-12-22T04:45:58;92366.59;;;1.58;70.56
84024;BME280;74109;45.636;25.582;2023-12-22T04:48:49;92367.21;;;1.64;70.25
84024;BME280;74109;45.636;25.582;2023-12-22T04:52:24;92371.81;;;1.66;70.22
84024;BME280;74109;45.636;25.582;2023-12-22T04:55:30;92371.00;;;1.65;70.19
84024;BME280;74109;45.636;25.582;2023-12-22T04:58:22;92373.52;;;1.68;70.09
84024;BME280;74109;45.636;25.582;2023-12-22T05:01:13;92377.40;;;1.71;69.75
84024;BME280;74109;45.636;25.582;2023-12-22T05:03:45;92368.52;;;1.71;69.65
84024;BME280;74109;45.636;25.582;2023-12-22T05:06:33;92363.48;;;1.76;69.73
84024;BME280;74109;45.636;25.582;2023-12-22T05:21:16;92334.44;;;1.82;69.74
84024;BME280;74109;45.636;25.582;2023-12-22T05:24:51;92332.40;;;1.84;69.65
84024;BME280;74109;45.636;25.582;2023-12-22T05:27:26;92330.67;;;1.86;69.79
84024;BME280;74109;45.636;25.582;2023-12-22T05:30:00;92330.73;;;1.88;69.96
84024;BME280;74109;45.636;25.582;2023-12-22T05:32:53;92322.66;;;1.89;69.61
84024;BME280;74109;45.636;25.582;2023-12-22T05:35:30;92316.08;;;1.88;69.78
84024;BME280;74109;45.636;25.582;2023-12-22T05:38:34;92301.83;;;1.86;69.36
84024;BME280;74109;45.636;25.582;2023-12-22T05:41:32;92300.51;;;1.89;69.40
84024;BME280;74109;45.636;25.582;2023-12-22T05:44:14;92292.75;;;1.92;69.64
84024;BME280;74109;45.636;25.582;2023-12-22T05:47:24;92304.73;;;1.92;69.21
84024;BME280;74109;45.636;25.582;2023-12-22T05:49:56;92298.77;;;1.91;69.12
84024;BME280;74109;45.636;25.582;2023-12-22T05:52:43;92295.30;;;1.89;68.86
84024;BME280;74109;45.636;25.582;2023-12-22T05:55:40;92307.70;;;1.83;69.41
84024;BME280;74109;45.636;25.582;2023-12-22T05:58:17;92312.30;;;1.81;68.82
84024;BME280;74109;45.636;25.582;2023-12-22T06:01:28;92305.75;;;1.84;68.65
84024;BME280;74109;45.636;25.582;2023-12-22T06:04:29;92299.52;;;1.91;68.80
84024;BME280;74109;45.636;25.582;2023-12-22T06:07:03;92298.94;;;2.04;69.22
84024;BME280;74109;45.636;25.582;2023-12-22T06:13:12;92310.15;;;2.24;68.94
84024;BME280;74109;45.636;25.582;2023-12-22T06:16:13;92317.23;;;2.25;68.52
84024;BME280;74109;45.636;25.582;2023-12-22T06:19:45;92333.02;;;2.29;69.12
84024;BME280;74109;45.636;25.582;2023-12-22T06:22:33;92343.34;;;2.31;68.30
84024;BME280;74109;45.636;25.582;2023-12-22T06:25:17;92354.39;;;2.32;68.35
84024;BME280;74109;45.636;25.582;2023-12-22T06:28:16;92353.16;;;2.31;68.64
84024;BME280;74109;45.636;25.582;2023-12-22T06:30:47;92350.70;;;2.37;68.54
84024;BME280;74109;45.636;25.582;2023-12-22T06:33:38;92335.89;;;2.47;67.26
84024;BME280;74109;45.636;25.582;2023-12-22T06:36:39;92324.08;;;2.59;67.32
84024;BME280;74109;45.636;25.582;2023-12-22T06:39:17;92330.96;;;2.67;67.68
84024;BME280;74109;45.636;25.582;2023-12-22T06:41:49;92334.65;;;2.71;67.62
84024;BME280;74109;45.636;25.582;2023-12-22T06:44:22;92336.98;;;2.73;67.34
84024;BME280;74109;45.636;25.582;2023-12-22T06:46:56;92348.71;;;2.77;67.64
84024;BME280;74109;45.636;25.582;2023-12-22T06:49:27;92349.83;;;2.79;67.33
84024;BME280;74109;45.636;25.582;2023-12-22T06:52:12;92334.34;;;2.79;66.83
84024;BME280;74109;45.636;25.582;2023-12-22T06:55:06;92331.52;;;2.76;66.92
84024;BME280;74109;45.636;25.582;2023-12-22T06:57:37;92339.91;;;2.80;67.79
84024;BME280;74109;45.636;25.582;2023-12-22T07:00:08;92346.09;;;2.80;67.59
84024;BME280;74109;45.636;25.582;2023-12-22T07:02:36;92358.06;;;2.83;67.84
84024;BME280;74109;45.636;25.582;2023-12-22T07:05:41;92366.30;;;2.79;67.63
84024;BME280;74109;45.636;25.582;2023-12-22T07:08:15;92391.88;;;2.71;67.32
84024;BME280;74109;45.636;25.582;2023-12-22T07:18:17;92441.31;;;2.89;67.35
84024;BME280;74109;45.636;25.582;2023-12-22T07:21:37;92438.77;;;3.24;67.07
84024;BME280;74109;45.636;25.582;2023-12-22T07:24:35;92460.19;;;3.51;67.29
84024;BME280;74109;45.636;25.582;2023-12-22T07:27:14;92486.33;;;3.67;66.75
84024;BME280;74109;45.636;25.582;2023-12-22T07:29:48;92506.89;;;3.78;66.68
84024;BME280;74109;45.636;25.582;2023-12-22T07:32:18;92513.02;;;3.86;66.66
84024;BME280;74109;45.636;25.582;2023-12-22T07:34:53;92515.58;;;3.93;66.69
84024;BME280;74109;45.636;25.582;2023-12-22T07:38:41;92511.91;;;3.98;67.28
84024;BME280;74109;45.636;25.582;2023-12-22T07:41:12;92511.80;;;4.00;67.91
84024;BME280;74109;45.636;25.582;2023-12-22T07:43:41;92508.21;;;4.02;67.82
84024;BME280;74109;45.636;25.582;2023-12-22T07:46:30;92509.94;;;4.05;68.17
84024;BME280;74109;45.636;25.582;2023-12-22T07:49:01;92503.69;;;4.06;68.08
84024;BME280;74109;45.636;25.582;2023-12-22T07:51:30;92489.69;;;4.09;67.90
84024;BME280;74109;45.636;25.582;2023-12-22T07:54:24;92482.25;;;4.11;68.41
84024;BME280;74109;45.636;25.582;2023-12-22T07:57:13;92486.63;;;4.16;68.76
84024;BME280;74109;45.636;25.582;2023-12-22T08:00:37;92475.77;;;4.27;68.62
84024;BME280;74109;45.636;25.582;2023-12-22T08:22:42;92369.61;;;5.52;65.12
84024;BME280;74109;45.636;25.582;2023-12-22T08:25:18;92364.08;;;5.68;64.89
84024;BME280;74109;45.636;25.582;2023-12-22T08:29:03;92355.20;;;5.77;64.63
84024;BME280;74109;45.636;25.582;2023-12-22T08:32:07;92324.93;;;5.83;63.98
84024;BME280;74109;45.636;25.582;2023-12-22T08:50:35;92373.65;;;6.12;62.66
84024;BME280;74109;45.636;25.582;2023-12-22T08:56:45;92349.08;;;6.46;61.05
84024;BME280;74109;45.636;25.582;2023-12-22T09:00:05;92355.92;;;6.69;58.11
84024;BME280;74109;45.636;25.582;2023-12-22T09:03:31;92381.38;;;6.84;57.86
84024;BME280;74109;45.636;25.582;2023-12-22T09:06:53;92398.35;;;6.99;57.91
84024;BME280;74109;45.636;25.582;2023-12-22T09:09:58;92381.56;;;7.14;57.46
84024;BME280;74109;45.636;25.582;2023-12-22T10:52:59;92413.41;;;4.93;58.58
84024;BME280;74109;45.636;25.582;2023-12-22T11:00:19;92437.96;;;5.02;58.13
84024;BME280;74109;45.636;25.582;2023-12-22T11:26:58;92459.23;;;4.54;59.62
84024;BME280;74109;45.636;25.582;2023-12-22T12:44:24;92410.77;;;3.98;57.33
84024;BME280;74109;45.636;25.582;2023-12-22T12:59:17;92428.50;;;4.38;55.71
84024;BME280;74109;45.636;25.582;2023-12-22T13:44:45;92459.79;;;4.46;49.14
84024;BME280;74109;45.636;25.582;2023-12-22T16:20:44;92519.27;;;1.91;56.00
84024;BME280;74109;45.636;25.582;2023-12-22T16:24:57;92510.39;;;1.92;56.38
84024;BME280;74109;45.636;25.582;2023-12-22T18:04:10;92598.35;;;1.71;57.49
84024;BME280;74109;45.636;25.582;2023-12-22T20:58:15;92589.45;;;1.69;59.29
84024;BME280;74109;45.636;25.582;2023-12-22T21:05:44;92568.42;;;1.77;58.13
84024;BME280;74109;45.636;25.582;2023-12-22T21:32:30;92574.45;;;1.94;56.92
84024;BME280;74109;45.636;25.582;2023-12-22T23:33:48;92581.52;;;2.02;53.98
